createdAt,value
2023-02-19T00:03:04.840Z,70.1
2023-02-19T00:13:04.801Z,70.4
2023-02-19T00:18:04.807Z,70.4
2023-02-19T00:23:04.830Z,70.4
2023-02-19T00:28:04.809Z,70.4
2023-02-19T00:33:04.811Z,70.4
2023-02-19T00:43:04.925Z,70.2
2023-02-19T00:48:04.821Z,70.1
2023-02-19T00:53:04.823Z,70.1
2023-02-19T01:03:04.863Z,70.7
2023-02-19T01:13:04.838Z,70.5
2023-02-19T01:23:04.842Z,70.3
2023-02-19T01:28:04.823Z,70.2
2023-02-19T01:38:04.812Z,70.1
2023-02-19T01:43:04.852Z,70.1
2023-02-19T01:53:04.818Z,70.2
2023-02-19T02:03:04.847Z,70.4
2023-02-19T02:08:04.830Z,70.4
2023-02-19T02:13:04.848Z,70.3
2023-02-19T02:18:04.866Z,70.2
2023-02-19T02:28:04.885Z,70.7
2023-02-19T02:33:04.880Z,70.1
2023-02-19T02:38:04.868Z,70.1
2023-02-19T02:48:04.863Z,70.4
2023-02-19T02:58:05.108Z,70.4
2023-02-19T03:03:04.860Z,70.5
2023-02-19T03:08:04.865Z,70.3
2023-02-19T03:18:04.849Z,70.2
2023-02-19T03:23:04.856Z,70.2
2023-02-19T03:28:04.844Z,70.2
2023-02-19T03:38:04.850Z,70.4
2023-02-19T03:48:04.844Z,70.8
2023-02-19T03:53:04.849Z,70.7
2023-02-19T03:58:04.886Z,70.6
2023-02-19T04:08:04.858Z,70.5
2023-02-19T04:18:04.855Z,70.4
2023-02-19T04:23:04.852Z,70.5
2023-02-19T04:33:04.853Z,70.5
2023-02-19T04:43:04.877Z,70.8
2023-02-19T04:53:04.845Z,70.7
2023-02-19T04:58:04.847Z,70.6
2023-02-19T05:03:04.858Z,70.5
2023-02-19T05:13:04.843Z,70.5
2023-02-19T05:23:04.897Z,70.5
2023-02-19T05:33:04.868Z,70.9
2023-02-19T05:38:04.877Z,71.2
2023-02-19T05:48:04.865Z,70.9
2023-02-19T05:53:04.888Z,70.7
2023-02-19T06:03:04.866Z,70.5
2023-02-19T06:13:04.864Z,70.5
2023-02-19T06:18:04.878Z,70.7
2023-02-19T06:23:04.877Z,71.3
2023-02-19T06:33:04.879Z,71.1
2023-02-19T06:43:04.881Z,70.8
2023-02-19T06:48:04.882Z,70.7
2023-02-19T06:58:04.907Z,70.6
2023-02-19T07:08:04.930Z,70.5
2023-02-19T07:18:04.885Z,71
2023-02-19T07:28:04.883Z,71
2023-02-19T07:38:04.890Z,70.7
2023-02-19T07:48:04.890Z,70.6
2023-02-19T07:53:04.903Z,70.6
2023-02-19T08:03:04.930Z,70.7
2023-02-19T08:08:04.891Z,71.2
2023-02-19T08:18:04.894Z,71
2023-02-19T08:23:04.906Z,71.1
2023-02-19T08:28:04.900Z,71.1
2023-02-19T08:38:04.889Z,70.8
2023-02-19T08:43:04.899Z,70.8
2023-02-19T08:53:04.915Z,70.7
2023-02-19T09:03:04.904Z,71.8
2023-02-19T09:08:04.895Z,71.4
2023-02-19T09:13:04.904Z,71.4
2023-02-19T09:23:04.914Z,71
2023-02-19T09:33:04.926Z,70.8
2023-02-19T09:43:04.915Z,70.7
2023-02-19T09:48:04.924Z,70.7
2023-02-19T09:58:04.909Z,71.6
2023-02-19T10:08:04.906Z,71.2
2023-02-19T10:18:04.917Z,70.9
2023-02-19T10:23:04.916Z,70.8
2023-02-19T10:33:04.908Z,70.7
2023-02-19T10:38:04.913Z,70.7
2023-02-19T10:48:04.914Z,71.3
2023-02-19T10:58:04.913Z,72.2
2023-02-19T11:03:04.948Z,71.3
2023-02-19T11:13:04.914Z,70.9
2023-02-19T11:18:04.964Z,70.8
2023-02-19T11:28:04.928Z,70.7
2023-02-19T11:38:04.932Z,71.1
2023-02-19T11:48:04.932Z,71.5
2023-02-19T11:58:04.931Z,71.3
2023-02-19T12:08:04.925Z,70.9
2023-02-19T12:13:04.961Z,70.8
2023-02-19T12:23:04.928Z,70.7
2023-02-19T12:28:04.929Z,70.7
2023-02-19T12:33:04.943Z,71
2023-02-19T12:43:05.037Z,71.2
2023-02-19T12:48:05.093Z,71
2023-02-19T12:53:04.967Z,70.8
2023-02-19T13:03:04.935Z,70.7
2023-02-19T13:13:04.932Z,70.7
2023-02-19T13:18:04.948Z,70.6
2023-02-19T13:28:04.968Z,70.9
2023-02-19T13:48:04.939Z,70.7
2023-02-19T13:53:04.942Z,70.6
2023-02-19T14:03:04.936Z,70.6
2023-02-19T14:08:05.062Z,70.6
2023-02-19T14:18:04.936Z,71.2
2023-02-19T14:23:04.937Z,71.7
2023-02-19T14:33:10.882Z,71.4
2023-02-19T14:43:04.960Z,71
2023-02-19T14:48:04.952Z,70.9
2023-02-19T14:58:04.944Z,70.8
2023-02-19T15:03:04.949Z,70.7
2023-02-19T15:13:04.954Z,71.6
2023-02-19T15:23:04.945Z,71.3
2023-02-19T15:28:04.959Z,71.2
2023-02-19T15:38:05.151Z,71
2023-02-19T15:48:04.953Z,70.8
2023-02-19T15:53:04.955Z,70.7
2023-02-19T16:03:05.082Z,70.7
2023-02-19T16:08:04.961Z,71.4
2023-02-19T16:18:04.955Z,71.3
2023-02-19T16:28:04.955Z,70.8
2023-02-19T16:33:04.962Z,70.8
2023-02-19T16:43:04.949Z,70.8
2023-02-19T16:48:04.949Z,70.7
2023-02-19T16:58:04.957Z,71.4
2023-02-19T17:08:04.961Z,71.4
2023-02-19T17:18:04.958Z,71.1
2023-02-19T17:23:04.970Z,71
2023-02-19T17:33:04.950Z,70.8
2023-02-19T17:38:04.955Z,70.7
2023-02-19T17:48:04.961Z,71.1
2023-02-19T17:53:04.981Z,71.2
2023-02-19T18:03:04.961Z,71.2
2023-02-19T18:13:04.956Z,70.9
2023-02-19T18:23:04.976Z,70.8
2023-02-19T18:28:04.967Z,70.7
2023-02-19T18:33:04.967Z,71.2
2023-02-19T18:43:04.979Z,71.2
2023-02-19T18:53:04.966Z,71.1
2023-02-19T18:58:04.980Z,71.3
2023-02-19T19:03:04.990Z,71.1
2023-02-19T19:13:04.970Z,70.8
2023-02-19T19:18:04.985Z,70.7
2023-02-19T19:28:04.974Z,70.6
2023-02-19T19:38:04.976Z,70.9
2023-02-19T19:43:04.985Z,70.8
2023-02-19T19:53:04.997Z,70.8
2023-02-19T19:58:04.988Z,70.8
2023-02-19T20:08:04.967Z,70.7
2023-02-19T20:13:04.972Z,70.6
2023-02-19T20:23:04.973Z,70.6
2023-02-19T20:28:04.969Z,70.7
2023-02-19T20:33:04.984Z,70.7
2023-02-19T20:43:04.981Z,70.6
2023-02-19T20:53:04.967Z,70.6
2023-02-19T20:58:04.984Z,70.6
2023-02-19T21:03:05.031Z,70.6
2023-02-19T21:08:05.011Z,70.5
2023-02-19T21:18:04.989Z,70.5
2023-02-19T21:28:04.987Z,70.6
2023-02-19T21:38:04.980Z,70.6
2023-02-19T21:48:04.987Z,70.5
2023-02-19T21:53:04.973Z,71
2023-02-19T21:58:04.997Z,70.4
2023-02-19T22:08:04.976Z,70.4
2023-02-19T22:18:04.970Z,70.4
2023-02-19T22:23:04.979Z,70.2
2023-02-19T22:28:05.035Z,70.3
2023-02-19T22:38:04.972Z,70.4
2023-02-19T22:43:04.980Z,70.3
2023-02-19T22:48:04.979Z,70.3
2023-02-19T22:58:04.986Z,70.3
2023-02-19T23:08:04.980Z,70.4
2023-02-19T23:13:04.982Z,71
2023-02-19T23:18:04.992Z,70.4
2023-02-19T23:28:05.000Z,70.2
2023-02-19T23:38:04.982Z,70.2
2023-02-19T23:48:04.981Z,70.1
2023-02-19T23:53:04.988Z,70.1
2023-02-19T23:58:05.000Z,70.1
